sensor_id;sensor_type;location;lat;lon;timestamp;pressure;altitude;pressure_sealevel;temperature;humidity
68075;BME280;54864;52.002;5.468;2023-03-31T00:00:11;100193.69;;;12.37;78.06
68075;BME280;54864;52.002;5.468;2023-03-31T00:01:12;100188.19;;;12.40;77.56
68075;BME280;54864;52.002;5.468;2023-03-31T00:02:14;100193.59;;;12.38;77.65
68075;BME280;54864;52.002;5.468;2023-03-31T00:03:15;100191.13;;;12.35;77.55
68075;BME280;54864;52.002;5.468;2023-03-31T00:04:21;100193.09;;;12.32;77.75
68075;BME280;54864;52.002;5.468;2023-03-31T00:05:23;100191.78;;;12.39;77.99
68075;BME280;54864;52.002;5.468;2023-03-31T00:06:24;100189.91;;;12.41;77.66
68075;BME280;54864;52.002;5.468;2023-03-31T00:07:25;100188.00;;;12.43;77.36
68075;BME280;54864;52.002;5.468;2023-03-31T00:08:28;100186.66;;;12.50;77.31
68075;BME280;54864;52.002;5.468;2023-03-31T00:09:36;100181.38;;;12.50;77.29
68075;BME280;54864;52.002;5.468;2023-03-31T00:10:43;100189.88;;;12.55;76.94
68075;BME280;54864;52.002;5.468;2023-03-31T00:11:44;100189.03;;;12.55;76.63
68075;BME280;54864;52.002;5.468;2023-03-31T00:12:46;100187.88;;;12.59;76.26
68075;BME280;54864;52.002;5.468;2023-03-31T00:13:47;100178.00;;;12.48;77.20
68075;BME280;54864;52.002;5.468;2023-03-31T00:14:48;100177.69;;;12.53;76.63
68075;BME280;54864;52.002;5.468;2023-03-31T00:15:55;100177.88;;;12.50;76.94
68075;BME280;54864;52.002;5.468;2023-03-31T00:16:57;100162.50;;;12.42;77.34
68075;BME280;54864;52.002;5.468;2023-03-31T00:17:57;100169.69;;;12.40;77.78
68075;BME280;54864;52.002;5.468;2023-03-31T00:18:59;100164.13;;;12.45;77.57
68075;BME280;54864;52.002;5.468;2023-03-31T00:20:01;100159.88;;;12.42;77.39
68075;BME280;54864;52.002;5.468;2023-03-31T00:21:06;100155.97;;;12.33;77.80
68075;BME280;54864;52.002;5.468;2023-03-31T00:22:07;100156.38;;;12.42;77.85
68075;BME280;54864;52.002;5.468;2023-03-31T00:23:09;100156.94;;;12.47;77.66
68075;BME280;54864;52.002;5.468;2023-03-31T00:24:11;100158.72;;;12.46;77.60
68075;BME280;54864;52.002;5.468;2023-03-31T00:25:15;100152.69;;;12.44;77.53
68075;BME280;54864;52.002;5.468;2023-03-31T00:26:15;100146.56;;;12.44;77.39
68075;BME280;54864;52.002;5.468;2023-03-31T00:27:17;100147.50;;;12.43;77.74
68075;BME280;54864;52.002;5.468;2023-03-31T00:28:18;100141.16;;;12.45;77.69
68075;BME280;54864;52.002;5.468;2023-03-31T00:29:20;100138.53;;;12.45;77.94
68075;BME280;54864;52.002;5.468;2023-03-31T00:30:22;100131.44;;;12.46;78.08
68075;BME280;54864;52.002;5.468;2023-03-31T00:31:26;100138.16;;;12.37;78.58
68075;BME280;54864;52.002;5.468;2023-03-31T00:32:27;100127.19;;;12.43;78.26
68075;BME280;54864;52.002;5.468;2023-03-31T00:33:29;100132.59;;;12.42;78.45
68075;BME280;54864;52.002;5.468;2023-03-31T00:34:30;100135.03;;;12.45;78.46
68075;BME280;54864;52.002;5.468;2023-03-31T00:35:34;100127.19;;;12.43;78.06
68075;BME280;54864;52.002;5.468;2023-03-31T00:36:34;100128.81;;;12.31;79.02
68075;BME280;54864;52.002;5.468;2023-03-31T00:37:45;100128.16;;;12.42;78.44
68075;BME280;54864;52.002;5.468;2023-03-31T00:38:46;100129.00;;;12.43;78.57
68075;BME280;54864;52.002;5.468;2023-03-31T00:39:48;100131.25;;;12.49;78.20
68075;BME280;54864;52.002;5.468;2023-03-31T00:40:50;100126.50;;;12.54;78.27
68075;BME280;54864;52.002;5.468;2023-03-31T00:41:51;100118.69;;;12.52;78.08
68075;BME280;54864;52.002;5.468;2023-03-31T00:42:53;100116.03;;;12.52;78.09
68075;BME280;54864;52.002;5.468;2023-03-31T00:44:09;100114.72;;;12.45;78.35
68075;BME280;54864;52.002;5.468;2023-03-31T00:45:28;100104.72;;;12.50;78.57
68075;BME280;54864;52.002;5.468;2023-03-31T00:46:32;100104.72;;;12.50;78.25
68075;BME280;54864;52.002;5.468;2023-03-31T00:47:35;100107.91;;;12.55;78.47
68075;BME280;54864;52.002;5.468;2023-03-31T00:48:36;100111.09;;;12.60;78.22
68075;BME280;54864;52.002;5.468;2023-03-31T00:49:40;100099.66;;;12.60;77.99
68075;BME280;54864;52.002;5.468;2023-03-31T00:50:48;100106.31;;;12.53;78.49
68075;BME280;54864;52.002;5.468;2023-03-31T00:51:51;100104.59;;;12.52;78.26
68075;BME280;54864;52.002;5.468;2023-03-31T00:52:55;100107.81;;;12.57;78.77
68075;BME280;54864;52.002;5.468;2023-03-31T00:54:00;100095.81;;;12.51;78.72
68075;BME280;54864;52.002;5.468;2023-03-31T00:55:08;100096.88;;;12.49;78.52
68075;BME280;54864;52.002;5.468;2023-03-31T00:56:14;100095.53;;;12.56;79.00
68075;BME280;54864;52.002;5.468;2023-03-31T00:57:17;100098.63;;;12.62;78.63
68075;BME280;54864;52.002;5.468;2023-03-31T00:58:19;100090.69;;;12.62;78.26
68075;BME280;54864;52.002;5.468;2023-03-31T00:59:25;100092.19;;;12.66;78.42
68075;BME280;54864;52.002;5.468;2023-03-31T01:00:28;100090.63;;;12.50;78.97
68075;BME280;54864;52.002;5.468;2023-03-31T01:01:30;100091.03;;;12.44;79.96
68075;BME280;54864;52.002;5.468;2023-03-31T01:02:32;100083.88;;;12.31;80.34
68075;BME280;54864;52.002;5.468;2023-03-31T01:03:32;100082.56;;;12.38;80.54
68075;BME280;54864;52.002;5.468;2023-03-31T01:04:38;100079.81;;;12.26;81.85
68075;BME280;54864;52.002;5.468;2023-03-31T01:05:43;100081.97;;;12.33;81.97
68075;BME280;54864;52.002;5.468;2023-03-31T01:06:51;100084.16;;;12.41;82.83
68075;BME280;54864;52.002;5.468;2023-03-31T01:08:00;100079.81;;;12.40;83.08
68075;BME280;54864;52.002;5.468;2023-03-31T01:09:02;100077.53;;;12.34;83.78
68075;BME280;54864;52.002;5.468;2023-03-31T01:10:07;100069.66;;;12.20;85.38
68075;BME280;54864;52.002;5.468;2023-03-31T01:11:11;100068.41;;;12.25;85.21
68075;BME280;54864;52.002;5.468;2023-03-31T01:12:16;100063.13;;;12.25;85.63
68075;BME280;54864;52.002;5.468;2023-03-31T01:13:19;100058.78;;;12.24;86.16
68075;BME280;54864;52.002;5.468;2023-03-31T01:14:24;100053.19;;;12.29;85.86
68075;BME280;54864;52.002;5.468;2023-03-31T01:15:26;100044.25;;;12.17;86.88
68075;BME280;54864;52.002;5.468;2023-03-31T01:16:26;100052.41;;;12.14;86.80
68075;BME280;54864;52.002;5.468;2023-03-31T01:17:28;100046.81;;;12.19;86.89
68075;BME280;54864;52.002;5.468;2023-03-31T01:18:30;100049.16;;;12.23;86.98
68075;BME280;54864;52.002;5.468;2023-03-31T01:19:48;100049.59;;;12.30;86.55
68075;BME280;54864;52.002;5.468;2023-03-31T01:21:16;100042.63;;;12.29;86.66
68075;BME280;54864;52.002;5.468;2023-03-31T01:26:34;100031.41;;;12.25;87.00
68075;BME280;54864;52.002;5.468;2023-03-31T01:28:03;100025.81;;;12.30;86.82
68075;BME280;54864;52.002;5.468;2023-03-31T01:29:18;100026.19;;;12.38;86.47
68075;BME280;54864;52.002;5.468;2023-03-31T01:30:41;100014.38;;;12.44;85.96
68075;BME280;54864;52.002;5.468;2023-03-31T01:32:14;100013.13;;;12.49;85.29
68075;BME280;54864;52.002;5.468;2023-03-31T01:33:54;100014.16;;;12.47;85.65
68075;BME280;54864;52.002;5.468;2023-03-31T01:37:04;100006.13;;;12.48;86.03
68075;BME280;54864;52.002;5.468;2023-03-31T01:40:14;99992.81;;;12.50;85.39
68075;BME280;54864;52.002;5.468;2023-03-31T01:41:28;99992.81;;;12.50;85.62
68075;BME280;54864;52.002;5.468;2023-03-31T01:42:36;99994.75;;;12.33;85.88
68075;BME280;54864;52.002;5.468;2023-03-31T01:43:43;99991.72;;;12.40;86.27
68075;BME280;54864;52.002;5.468;2023-03-31T01:44:54;99987.97;;;12.29;86.74
68075;BME280;54864;52.002;5.468;2023-03-31T01:46:00;99984.03;;;12.22;86.91
68075;BME280;54864;52.002;5.468;2023-03-31T01:47:09;99981.91;;;12.15;87.40
68075;BME280;54864;52.002;5.468;2023-03-31T01:48:15;99981.03;;;12.14;87.69
68075;BME280;54864;52.002;5.468;2023-03-31T01:49:23;99980.53;;;12.22;87.27
68075;BME280;54864;52.002;5.468;2023-03-31T01:50:32;99970.53;;;12.27;87.17
68075;BME280;54864;52.002;5.468;2023-03-31T01:51:43;99977.81;;;12.23;87.55
68075;BME280;54864;52.002;5.468;2023-03-31T01:52:52;99977.56;;;12.14;87.48
68075;BME280;54864;52.002;5.468;2023-03-31T01:54:02;99978.41;;;12.14;87.80
68075;BME280;54864;52.002;5.468;2023-03-31T01:55:08;99972.63;;;12.22;86.86
68075;BME280;54864;52.002;5.468;2023-03-31T01:56:17;99965.84;;;12.18;87.45
68075;BME280;54864;52.002;5.468;2023-03-31T01:57:23;99964.91;;;12.19;87.58
68075;BME280;54864;52.002;5.468;2023-03-31T01:58:31;99951.16;;;12.26;87.22
68075;BME280;54864;52.002;5.468;2023-03-31T01:59:42;99963.50;;;12.13;87.39
68075;BME280;54864;52.002;5.468;2023-03-31T02:00:48;99950.59;;;12.09;87.67
68075;BME280;54864;52.002;5.468;2023-03-31T02:01:54;99949.03;;;12.19;87.92
68075;BME280;54864;52.002;5.468;2023-03-31T02:02:59;99957.28;;;12.14;87.83
68075;BME280;54864;52.002;5.468;2023-03-31T02:04:06;99947.00;;;12.10;88.20
68075;BME280;54864;52.002;5.468;2023-03-31T02:05:13;99944.69;;;12.18;87.47
68075;BME280;54864;52.002;5.468;2023-03-31T02:06:19;99944.59;;;12.19;87.05
68075;BME280;54864;52.002;5.468;2023-03-31T02:07:31;99951.47;;;12.22;87.29
68075;BME280;54864;52.002;5.468;2023-03-31T02:08:37;99939.34;;;12.32;86.88
68075;BME280;54864;52.002;5.468;2023-03-31T02:09:44;99930.03;;;12.26;86.67
68075;BME280;54864;52.002;5.468;2023-03-31T02:10:47;99932.56;;;12.28;86.68
68075;BME280;54864;52.002;5.468;2023-03-31T02:11:52;99936.97;;;12.15;87.41
68075;BME280;54864;52.002;5.468;2023-03-31T02:12:57;99920.41;;;12.25;86.88
68075;BME280;54864;52.002;5.468;2023-03-31T02:14:00;99929.50;;;12.34;86.61
68075;BME280;54864;52.002;5.468;2023-03-31T02:15:07;99917.56;;;12.28;86.26
68075;BME280;54864;52.002;5.468;2023-03-31T02:16:13;99928.41;;;12.11;86.75
68075;BME280;54864;52.002;5.468;2023-03-31T02:17:21;99923.25;;;12.22;87.00
68075;BME280;54864;52.002;5.468;2023-03-31T02:18:30;99920.09;;;12.30;86.44
68075;BME280;54864;52.002;5.468;2023-03-31T02:19:39;99913.53;;;12.23;86.38
68075;BME280;54864;52.002;5.468;2023-03-31T02:20:41;99903.56;;;12.14;86.88
68075;BME280;54864;52.002;5.468;2023-03-31T02:21:46;99900.97;;;12.26;86.85
68075;BME280;54864;52.002;5.468;2023-03-31T02:22:51;99898.31;;;12.26;86.69
68075;BME280;54864;52.002;5.468;2023-03-31T02:23:54;99900.53;;;12.20;87.04
68075;BME280;54864;52.002;5.468;2023-03-31T02:24:56;99888.50;;;12.28;87.00
68075;BME280;54864;52.002;5.468;2023-03-31T02:26:01;99889.66;;;12.24;86.98
68075;BME280;54864;52.002;5.468;2023-03-31T02:27:08;99888.63;;;12.40;86.69
68075;BME280;54864;52.002;5.468;2023-03-31T02:28:17;99890.22;;;12.42;86.31
68075;BME280;54864;52.002;5.468;2023-03-31T02:29:20;99880.59;;;12.41;86.28
68075;BME280;54864;52.002;5.468;2023-03-31T02:30:21;99876.28;;;12.40;85.82
68075;BME280;54864;52.002;5.468;2023-03-31T02:31:27;99877.50;;;12.34;86.46
68075;BME280;54864;52.002;5.468;2023-03-31T02:32:31;99875.28;;;12.28;86.50
68075;BME280;54864;52.002;5.468;2023-03-31T02:33:33;99871.28;;;12.35;86.86
68075;BME280;54864;52.002;5.468;2023-03-31T02:34:34;99871.81;;;12.41;86.54
68075;BME280;54864;52.002;5.468;2023-03-31T02:35:35;99877.28;;;12.25;87.03
68075;BME280;54864;52.002;5.468;2023-03-31T02:36:36;99860.78;;;12.34;86.87
68075;BME280;54864;52.002;5.468;2023-03-31T02:37:39;99866.44;;;12.42;86.47
68075;BME280;54864;52.002;5.468;2023-03-31T02:38:43;99859.94;;;12.33;86.51
68075;BME280;54864;52.002;5.468;2023-03-31T02:39:48;99859.22;;;12.31;87.25
68075;BME280;54864;52.002;5.468;2023-03-31T02:40:50;99853.06;;;12.31;87.34
68075;BME280;54864;52.002;5.468;2023-03-31T02:41:52;99853.69;;;12.22;87.74
68075;BME280;54864;52.002;5.468;2023-03-31T02:42:54;99851.25;;;12.19;88.01
68075;BME280;54864;52.002;5.468;2023-03-31T02:43:56;99840.69;;;12.19;87.96
68075;BME280;54864;52.002;5.468;2023-03-31T02:45:01;99850.94;;;12.11;88.04
68075;BME280;54864;52.002;5.468;2023-03-31T02:46:03;99842.06;;;12.12;88.64
68075;BME280;54864;52.002;5.468;2023-03-31T02:47:06;99841.53;;;12.06;88.57
68075;BME280;54864;52.002;5.468;2023-03-31T02:48:10;99841.53;;;12.06;88.89
68075;BME280;54864;52.002;5.468;2023-03-31T02:49:13;99836.00;;;11.97;89.45
68075;BME280;54864;52.002;5.468;2023-03-31T02:50:16;99826.69;;;11.91;89.39
68075;BME280;54864;52.002;5.468;2023-03-31T02:51:41;99827.13;;;11.85;90.25
68075;BME280;54864;52.002;5.468;2023-03-31T02:52:54;99820.69;;;11.89;89.65
68075;BME280;54864;52.002;5.468;2023-03-31T02:54:15;99823.56;;;11.99;89.54
68075;BME280;54864;52.002;5.468;2023-03-31T02:55:43;99812.56;;;12.05;89.45
68075;BME280;54864;52.002;5.468;2023-03-31T02:57:01;99805.28;;;12.09;89.31
68075;BME280;54864;52.002;5.468;2023-03-31T02:58:27;99806.66;;;12.14;88.47
68075;BME280;54864;52.002;5.468;2023-03-31T02:59:41;99806.63;;;11.89;88.70
68075;BME280;54864;52.002;5.468;2023-03-31T03:00:58;99793.00;;;11.82;89.98
68075;BME280;54864;52.002;5.468;2023-03-31T03:02:09;99789.09;;;12.00;89.63
68075;BME280;54864;52.002;5.468;2023-03-31T03:03:28;99780.34;;;12.13;88.72
68075;BME280;54864;52.002;5.468;2023-03-31T03:04:48;99778.66;;;11.99;89.00
68075;BME280;54864;52.002;5.468;2023-03-31T03:06:00;99779.72;;;12.09;89.56
68075;BME280;54864;52.002;5.468;2023-03-31T03:07:09;99773.25;;;12.13;88.40
68075;BME280;54864;52.002;5.468;2023-03-31T03:08:19;99770.63;;;12.13;88.78
68075;BME280;54864;52.002;5.468;2023-03-31T03:09:34;99776.84;;;12.12;88.92
68075;BME280;54864;52.002;5.468;2023-03-31T03:10:42;99768.41;;;12.20;88.37
68075;BME280;54864;52.002;5.468;2023-03-31T03:11:52;99758.88;;;12.30;87.62
68075;BME280;54864;52.002;5.468;2023-03-31T03:13:04;99762.59;;;12.27;87.86
68075;BME280;54864;52.002;5.468;2023-03-31T03:14:16;99761.88;;;12.38;86.93
68075;BME280;54864;52.002;5.468;2023-03-31T03:15:25;99764.63;;;12.36;87.26
68075;BME280;54864;52.002;5.468;2023-03-31T03:16:31;99758.16;;;12.28;87.77
68075;BME280;54864;52.002;5.468;2023-03-31T03:17:38;99758.66;;;12.33;87.25
68075;BME280;54864;52.002;5.468;2023-03-31T03:18:41;99759.75;;;12.43;87.09
68075;BME280;54864;52.002;5.468;2023-03-31T03:19:42;99752.25;;;12.37;86.81
68075;BME280;54864;52.002;5.468;2023-03-31T03:20:44;99753.09;;;12.37;87.06
68075;BME280;54864;52.002;5.468;2023-03-31T03:21:48;99755.84;;;12.36;87.13
68075;BME280;54864;52.002;5.468;2023-03-31T03:22:50;99752.56;;;12.45;86.48
68075;BME280;54864;52.002;5.468;2023-03-31T03:23:51;99753.19;;;12.49;85.97
68075;BME280;54864;52.002;5.468;2023-03-31T03:24:53;99752.03;;;12.40;86.13
68075;BME280;54864;52.002;5.468;2023-03-31T03:25:53;99747.91;;;12.23;87.00
68075;BME280;54864;52.002;5.468;2023-03-31T03:26:55;99742.28;;;12.15;87.78
68075;BME280;54864;52.002;5.468;2023-03-31T03:27:56;99743.78;;;12.19;87.59
68075;BME280;54864;52.002;5.468;2023-03-31T03:28:58;99744.41;;;12.23;87.53
68075;BME280;54864;52.002;5.468;2023-03-31T03:30:00;99739.66;;;12.28;87.01
68075;BME280;54864;52.002;5.468;2023-03-31T03:31:04;99743.88;;;12.05;87.80
68075;BME280;54864;52.002;5.468;2023-03-31T03:32:05;99738.28;;;12.10;88.25
68075;BME280;54864;52.002;5.468;2023-03-31T03:33:06;99735.53;;;12.11;88.25
68075;BME280;54864;52.002;5.468;2023-03-31T03:34:07;99736.06;;;12.16;88.03
68075;BME280;54864;52.002;5.468;2023-03-31T03:35:10;99729.50;;;12.09;88.07
68075;BME280;54864;52.002;5.468;2023-03-31T03:36:11;99727.28;;;12.16;87.27
68075;BME280;54864;52.002;5.468;2023-03-31T03:37:13;99720.94;;;12.18;87.19
68075;BME280;54864;52.002;5.468;2023-03-31T03:38:13;99715.13;;;12.26;86.85
68075;BME280;54864;52.002;5.468;2023-03-31T03:39:15;99723.38;;;12.21;86.50
68075;BME280;54864;52.002;5.468;2023-03-31T03:40:16;99715.97;;;12.14;86.42
68075;BME280;54864;52.002;5.468;2023-03-31T03:41:18;99711.00;;;12.09;86.87
68075;BME280;54864;52.002;5.468;2023-03-31T03:42:18;99700.75;;;12.17;87.14
68075;BME280;54864;52.002;5.468;2023-03-31T03:43:20;99697.91;;;12.20;86.57
68075;BME280;54864;52.002;5.468;2023-03-31T03:44:21;99693.69;;;12.18;86.62
68075;BME280;54864;52.002;5.468;2023-03-31T03:45:24;99694.41;;;12.20;86.80
68075;BME280;54864;52.002;5.468;2023-03-31T03:46:24;99692.94;;;12.16;86.66
68075;BME280;54864;52.002;5.468;2023-03-31T03:47:26;99687.13;;;12.11;86.64
68075;BME280;54864;52.002;5.468;2023-03-31T03:48:27;99684.50;;;12.11;86.81
68075;BME280;54864;52.002;5.468;2023-03-31T03:49:29;99683.97;;;12.05;86.79
68075;BME280;54864;52.002;5.468;2023-03-31T03:50:29;99683.22;;;12.03;87.20
68075;BME280;54864;52.002;5.468;2023-03-31T03:51:31;99686.72;;;12.04;87.59
68075;BME280;54864;52.002;5.468;2023-03-31T03:52:32;99689.56;;;12.14;87.01
68075;BME280;54864;52.002;5.468;2023-03-31T03:53:33;99693.16;;;12.13;86.58
68075;BME280;54864;52.002;5.468;2023-03-31T03:54:34;99687.66;;;12.16;86.55
68075;BME280;54864;52.002;5.468;2023-03-31T03:55:36;99685.84;;;12.16;86.49
68075;BME280;54864;52.002;5.468;2023-03-31T03:56:36;99677.31;;;12.13;86.49
68075;BME280;54864;52.002;5.468;2023-03-31T03:57:38;99674.22;;;12.19;85.81
68075;BME280;54864;52.002;5.468;2023-03-31T03:58:39;99666.41;;;12.17;85.82
68075;BME280;54864;52.002;5.468;2023-03-31T03:59:40;99668.44;;;12.01;86.09
68075;BME280;54864;52.002;5.468;2023-03-31T04:00:42;99667.69;;;11.99;86.65
68075;BME280;54864;52.002;5.468;2023-03-31T04:01:44;99665.03;;;12.12;86.36
68075;BME280;54864;52.002;5.468;2023-03-31T04:02:45;99663.97;;;12.14;86.08
68075;BME280;54864;52.002;5.468;2023-03-31T04:03:46;99666.72;;;12.13;86.05
68075;BME280;54864;52.002;5.468;2023-03-31T04:04:47;99657.13;;;12.12;86.51
68075;BME280;54864;52.002;5.468;2023-03-31T04:05:49;99660.81;;;12.09;86.61
68075;BME280;54864;52.002;5.468;2023-03-31T04:06:50;99655.13;;;12.02;87.55
68075;BME280;54864;52.002;5.468;2023-03-31T04:07:51;99647.81;;;12.19;86.92
68075;BME280;54864;52.002;5.468;2023-03-31T04:08:52;99650.44;;;12.19;86.50
68075;BME280;54864;52.002;5.468;2023-03-31T04:09:54;99642.09;;;12.25;86.19
68075;BME280;54864;52.002;5.468;2023-03-31T04:10:55;99645.50;;;12.14;85.90
68075;BME280;54864;52.002;5.468;2023-03-31T04:11:56;99639.03;;;12.18;86.17
68075;BME280;54864;52.002;5.468;2023-03-31T04:12:57;99633.63;;;12.20;86.63
68075;BME280;54864;52.002;5.468;2023-03-31T04:13:58;99621.28;;;12.20;86.38
68075;BME280;54864;52.002;5.468;2023-03-31T04:14:59;99622.00;;;12.22;86.64
68075;BME280;54864;52.002;5.468;2023-03-31T04:16:02;99619.03;;;12.27;86.51
68075;BME280;54864;52.002;5.468;2023-03-31T04:17:03;99612.47;;;12.32;86.31
68075;BME280;54864;52.002;5.468;2023-03-31T04:18:04;99600.53;;;12.27;86.68
68075;BME280;54864;52.002;5.468;2023-03-31T04:19:05;99607.19;;;12.32;86.16
68075;BME280;54864;52.002;5.468;2023-03-31T04:20:09;99593.06;;;12.21;87.21
68075;BME280;54864;52.002;5.468;2023-03-31T04:21:12;99593.91;;;12.21;87.45
68075;BME280;54864;52.002;5.468;2023-03-31T04:22:14;99591.81;;;12.14;88.24
68075;BME280;54864;52.002;5.468;2023-03-31T04:23:20;99579.00;;;12.20;87.74
68075;BME280;54864;52.002;5.468;2023-03-31T04:24:25;99583.94;;;12.25;87.53
68075;BME280;54864;52.002;5.468;2023-03-31T04:25:30;99580.78;;;12.20;87.84
68075;BME280;54864;52.002;5.468;2023-03-31T04:26:33;99573.19;;;12.15;88.13
68075;BME280;54864;52.002;5.468;2023-03-31T04:27:43;99562.63;;;12.15;88.35
68075;BME280;54864;52.002;5.468;2023-03-31T04:28:46;99566.44;;;12.11;88.61
68075;BME280;54864;52.002;5.468;2023-03-31T04:29:49;99560.88;;;12.03;89.17
68075;BME280;54864;52.002;5.468;2023-03-31T04:30:54;99561.97;;;11.88;90.12
68075;BME280;54864;52.002;5.468;2023-03-31T04:31:59;99558.38;;;11.89;90.25
68075;BME280;54864;52.002;5.468;2023-03-31T04:33:01;99554.16;;;11.86;90.66
68075;BME280;54864;52.002;5.468;2023-03-31T04:34:03;99554.47;;;11.82;91.07
68075;BME280;54864;52.002;5.468;2023-03-31T04:35:06;99559.97;;;11.79;91.65
68075;BME280;54864;52.002;5.468;2023-03-31T04:36:08;99552.56;;;11.71;92.29
68075;BME280;54864;52.002;5.468;2023-03-31T04:37:17;99548.97;;;11.72;92.50
68075;BME280;54864;52.002;5.468;2023-03-31T04:38:19;99551.94;;;11.80;92.41
68075;BME280;54864;52.002;5.468;2023-03-31T04:39:21;99552.91;;;11.79;92.17
68075;BME280;54864;52.002;5.468;2023-03-31T04:40:26;99542.63;;;11.74;92.42
68075;BME280;54864;52.002;5.468;2023-03-31T04:41:26;99550.53;;;11.74;92.76
68075;BME280;54864;52.002;5.468;2023-03-31T04:42:28;99537.06;;;11.79;92.68
68075;BME280;54864;52.002;5.468;2023-03-31T04:43:29;99540.53;;;11.80;92.07
68075;BME280;54864;52.002;5.468;2023-03-31T04:44:30;99532.41;;;11.83;92.08
68075;BME280;54864;52.002;5.468;2023-03-31T04:45:31;99530.50;;;11.85;91.99
68075;BME280;54864;52.002;5.468;2023-03-31T04:46:33;99529.03;;;11.81;92.03
68075;BME280;54864;52.002;5.468;2023-03-31T04:47:36;99518.34;;;11.82;91.70
68075;BME280;54864;52.002;5.468;2023-03-31T04:48:38;99527.13;;;11.83;91.93
68075;BME280;54864;52.002;5.468;2023-03-31T04:49:38;99522.91;;;11.80;92.10
68075;BME280;54864;52.002;5.468;2023-03-31T04:50:40;99515.59;;;11.71;92.33
68075;BME280;54864;52.002;5.468;2023-03-31T04:51:41;99524.88;;;11.77;92.48
68075;BME280;54864;52.002;5.468;2023-03-31T04:52:44;99518.75;;;11.76;92.36
68075;BME280;54864;52.002;5.468;2023-03-31T04:53:44;99521.91;;;11.68;92.46
68075;BME280;54864;52.002;5.468;2023-03-31T04:54:46;99518.56;;;11.79;92.30
68075;BME280;54864;52.002;5.468;2023-03-31T04:55:47;99512.63;;;11.75;91.80
68075;BME280;54864;52.002;5.468;2023-03-31T04:56:49;99519.72;;;11.50;92.86
68075;BME280;54864;52.002;5.468;2023-03-31T04:57:50;99516.97;;;11.51;93.39
68075;BME280;54864;52.002;5.468;2023-03-31T04:58:51;99517.50;;;11.56;93.65
68075;BME280;54864;52.002;5.468;2023-03-31T04:59:52;99513.25;;;11.66;92.47
68075;BME280;54864;52.002;5.468;2023-03-31T05:00:54;99507.13;;;11.66;92.54
68075;BME280;54864;52.002;5.468;2023-03-31T05:01:55;99501.34;;;11.61;93.03
68075;BME280;54864;52.002;5.468;2023-03-31T05:02:59;99501.34;;;11.73;92.31
68075;BME280;54864;52.002;5.468;2023-03-31T05:04:01;99499.53;;;11.61;92.41
68075;BME280;54864;52.002;5.468;2023-03-31T05:05:03;99491.09;;;11.56;92.87
68075;BME280;54864;52.002;5.468;2023-03-31T05:06:07;99488.69;;;11.53;93.19
68075;BME280;54864;52.002;5.468;2023-03-31T05:07:08;99491.94;;;11.57;93.09
68075;BME280;54864;52.002;5.468;2023-03-31T05:08:10;99480.22;;;11.61;93.40
68075;BME280;54864;52.002;5.468;2023-03-31T05:09:11;99471.56;;;11.71;92.69
68075;BME280;54864;52.002;5.468;2023-03-31T05:10:13;99471.88;;;11.80;92.58
68075;BME280;54864;52.002;5.468;2023-03-31T05:11:13;99482.22;;;11.83;91.49
68075;BME280;54864;52.002;5.468;2023-03-31T05:12:15;99480.09;;;11.75;91.57
68075;BME280;54864;52.002;5.468;2023-03-31T05:13:16;99473.03;;;11.75;91.48
68075;BME280;54864;52.002;5.468;2023-03-31T05:14:18;99478.63;;;11.84;91.58
68075;BME280;54864;52.002;5.468;2023-03-31T05:15:20;99466.88;;;11.88;91.56
68075;BME280;54864;52.002;5.468;2023-03-31T05:16:20;99470.81;;;11.82;91.49
68075;BME280;54864;52.002;5.468;2023-03-31T05:17:22;99469.88;;;11.70;92.32
68075;BME280;54864;52.002;5.468;2023-03-31T05:18:24;99467.84;;;11.74;91.71
68075;BME280;54864;52.002;5.468;2023-03-31T05:19:26;99465.84;;;11.65;91.63
68075;BME280;54864;52.002;5.468;2023-03-31T05:20:26;99465.22;;;11.61;92.10
68075;BME280;54864;52.002;5.468;2023-03-31T05:21:28;99469.44;;;11.64;92.14
68075;BME280;54864;52.002;5.468;2023-03-31T05:22:33;99458.44;;;11.70;92.42
68075;BME280;54864;52.002;5.468;2023-03-31T05:23:35;99461.84;;;11.72;92.16
68075;BME280;54864;52.002;5.468;2023-03-31T05:24:36;99461.72;;;11.73;92.06
68075;BME280;54864;52.002;5.468;2023-03-31T05:25:37;99454.66;;;11.74;91.92
68075;BME280;54864;52.002;5.468;2023-03-31T05:26:38;99454.13;;;11.82;91.73
68075;BME280;54864;52.002;5.468;2023-03-31T05:27:40;99452.09;;;11.85;91.18
68075;BME280;54864;52.002;5.468;2023-03-31T05:28:41;99453.91;;;11.85;90.82
68075;BME280;54864;52.002;5.468;2023-03-31T05:29:43;99448.19;;;11.91;90.99
68075;BME280;54864;52.002;5.468;2023-03-31T05:30:45;99447.44;;;11.89;90.86
68075;BME280;54864;52.002;5.468;2023-03-31T05:31:45;99441.81;;;11.93;90.48
68075;BME280;54864;52.002;5.468;2023-03-31T05:32:47;99436.78;;;11.90;90.29
68075;BME280;54864;52.002;5.468;2023-03-31T05:33:49;99431.72;;;11.87;90.84
68075;BME280;54864;52.002;5.468;2023-03-31T05:34:51;99436.53;;;11.93;90.48
68075;BME280;54864;52.002;5.468;2023-03-31T05:35:52;99433.47;;;11.99;89.93
68075;BME280;54864;52.002;5.468;2023-03-31T05:36:53;99430.09;;;11.97;89.80
68075;BME280;54864;52.002;5.468;2023-03-31T05:37:54;99429.00;;;12.00;89.73
68075;BME280;54864;52.002;5.468;2023-03-31T05:38:56;99438.06;;;12.09;89.35
68075;BME280;54864;52.002;5.468;2023-03-31T05:39:56;99432.63;;;11.99;89.27
68075;BME280;54864;52.002;5.468;2023-03-31T05:40:58;99430.66;;;11.90;89.55
68075;BME280;54864;52.002;5.468;2023-03-31T05:41:59;99425.81;;;11.84;90.26
68075;BME280;54864;52.002;5.468;2023-03-31T05:43:01;99427.19;;;11.77;90.36
68075;BME280;54864;52.002;5.468;2023-03-31T05:44:01;99428.22;;;11.87;90.22
68075;BME280;54864;52.002;5.468;2023-03-31T05:45:04;99427.50;;;11.85;90.22
68075;BME280;54864;52.002;5.468;2023-03-31T05:46:05;99423.78;;;11.87;89.83
68075;BME280;54864;52.002;5.468;2023-03-31T05:47:07;99429.75;;;11.78;90.59
68075;BME280;54864;52.002;5.468;2023-03-31T05:48:09;99424.03;;;11.84;90.50